Bulgan, Mongolia
Current Conditions -  °F | °C
As of 3:30 PM on Sunday 23 Nov 2014 (Local Time) from ZMUB Reporting Station
Clear Clear  
Wind Chill: 17°   Ceiling: Unl
Heat Index: 23°   Visibility: 6mi
Dew Point:   Wind: 4mph
Humidity: 39%   Direction: NA
Pressure: 30.12"   Gusts: NA
Location:  48.82°N, 103.56°E
Report Text: ZMUB 230730Z VRB02MPS CAVOK M05/M17 Q1020 NOSIG RMK QFE657.4 34
Loading
Personal Weather Stations






























Interactive Weather Map New forecast layout! Learn more

10-Day Weather Forecast

Advertisements
Track Severe Weather on mobile